createdAt,value
2018-12-20T00:01:23.559Z,101087.78
2018-12-20T00:03:51.164Z,101085.55
2018-12-20T00:06:18.825Z,101086.44
2018-12-20T00:08:46.329Z,101083.29
2018-12-20T00:11:15.072Z,101086.44
2018-12-20T00:13:42.692Z,101091.81
2018-12-20T00:16:10.297Z,101086.44
2018-12-20T00:18:37.918Z,101083.31
2018-12-20T00:21:05.517Z,101035.12
2018-12-20T00:23:33.064Z,101076.58
2018-12-20T00:26:00.553Z,101063.83
2018-12-20T00:28:28.015Z,101073.95
2018-12-20T00:30:55.456Z,101072.61
2018-12-20T00:33:23.117Z,101063.64
2018-12-20T00:35:50.696Z,101064.97
2018-12-20T00:38:18.287Z,101066.77
2018-12-20T00:40:45.849Z,101067.66
2018-12-20T00:43:13.412Z,101070.80
2018-12-20T00:45:41.333Z,101066.70
2018-12-20T00:48:08.882Z,101069.46
2018-12-20T00:50:36.444Z,101071.69
2018-12-20T00:53:04.503Z,101073.04
2018-12-20T00:55:32.192Z,101067.23
2018-12-20T00:57:59.778Z,101069.86
2018-12-20T01:00:27.389Z,101065.88
2018-12-20T01:02:55.398Z,101061.41
2018-12-20T01:05:23.251Z,101067.69
2018-12-20T01:07:50.860Z,101069.03
2018-12-20T01:10:18.538Z,101069.09
2018-12-20T01:12:46.078Z,101071.72
2018-12-20T01:15:13.596Z,101075.81
2018-12-20T01:17:41.301Z,101071.78
2018-12-20T01:20:09.432Z,101078.97
2018-12-20T01:22:36.983Z,101086.59
2018-12-20T01:25:05.639Z,101087.44
2018-12-20T01:27:33.351Z,101086.59
2018-12-20T01:30:00.879Z,101083.89
2018-12-20T01:32:28.645Z,101088.39
2018-12-20T01:34:56.297Z,101092.42
2018-12-20T01:37:23.792Z,101093.70
2018-12-20T01:39:51.405Z,101091.48
2018-12-20T01:42:18.932Z,101095.05
2018-12-20T01:44:53.337Z,101100.05
2018-12-20T01:47:16.022Z,101093.70
2018-12-20T01:49:43.557Z,101098.20
2018-12-20T01:52:11.037Z,101097.34
2018-12-20T01:54:38.659Z,101091.02
2018-12-20T01:57:06.202Z,101092.42
2018-12-20T01:59:33.774Z,101091.02
2018-12-20T02:02:01.492Z,101091.02
2018-12-20T02:04:29.201Z,101091.97
2018-12-20T02:06:56.941Z,101091.53
2018-12-20T02:09:24.592Z,101093.31
2018-12-20T02:11:52.388Z,101086.61
2018-12-20T02:14:19.967Z,101091.99
2018-12-20T02:16:47.495Z,101094.23
2018-12-20T02:19:15.039Z,101092.94
2018-12-20T02:21:42.652Z,101089.39
2018-12-20T02:24:10.446Z,101099.16
2018-12-20T02:26:38.112Z,101094.69
2018-12-20T02:29:05.845Z,101096.92
2018-12-20T02:31:33.581Z,101098.27
2018-12-20T02:34:01.368Z,101085.27
2018-12-20T02:36:29.236Z,101085.72
2018-12-20T02:38:57.009Z,101078.14
2018-12-20T02:41:24.735Z,101077.70
2018-12-20T02:43:52.468Z,101082.17
2018-12-20T02:46:20.057Z,101082.17
2018-12-20T02:48:47.968Z,101073.22
2018-12-20T02:51:15.517Z,101074.11
2018-12-20T02:53:43.060Z,101070.89
2018-12-20T02:56:10.522Z,101067.31
2018-12-20T02:58:38.169Z,101073.52
2018-12-20T03:01:05.706Z,101067.25
2018-12-20T03:03:33.191Z,101063.28
2018-12-20T03:06:00.682Z,101025.80
2018-12-20T03:08:28.169Z,101064.63
2018-12-20T03:10:55.851Z,101056.98
2018-12-20T03:13:23.379Z,101057.83
2018-12-20T03:15:51.226Z,101048.91
2018-12-20T03:18:18.807Z,101044.01
2018-12-20T03:20:46.443Z,101046.61
2018-12-20T03:23:14.402Z,101051.59
2018-12-20T03:25:41.911Z,101048.02
2018-12-20T03:28:09.690Z,101044.44
2018-12-20T03:30:37.399Z,101039.95
2018-12-20T03:33:05.491Z,101043.09
2018-12-20T03:35:33.384Z,101038.14
2018-12-20T03:38:00.963Z,101033.22
2018-12-20T03:40:28.447Z,101037.25
2018-12-20T03:42:55.927Z,101034.56
2018-12-20T03:45:28.685Z,101037.28
2018-12-20T03:47:53.104Z,101042.20
2018-12-20T03:50:20.809Z,101039.12
2018-12-20T03:52:48.497Z,101048.94
2018-12-20T03:55:16.093Z,101041.81
2018-12-20T03:57:43.793Z,101039.66
2018-12-20T04:00:11.541Z,101052.60
2018-12-20T04:02:39.124Z,101054.37
2018-12-20T04:05:06.639Z,101053.03
2018-12-20T04:07:34.191Z,101057.53
2018-12-20T04:10:01.723Z,101061.11
2018-12-20T04:12:30.336Z,101055.66
2018-12-20T04:14:58.065Z,101058.81
2018-12-20T04:17:25.901Z,101058.41
2018-12-20T04:19:53.636Z,101062.45
2018-12-20T04:22:21.428Z,101062.39
2018-12-20T04:24:49.080Z,101063.34
2018-12-20T04:27:16.815Z,101056.61
2018-12-20T04:29:44.668Z,101055.72
2018-12-20T04:32:12.281Z,101057.01
2018-12-20T04:34:39.926Z,101056.12
2018-12-20T04:37:07.623Z,101056.55
2018-12-20T04:39:35.132Z,101044.89
2018-12-20T04:42:02.578Z,101044.38
2018-12-20T04:44:30.207Z,101036.80
2018-12-20T04:46:59.595Z,101040.86
2018-12-20T04:49:27.234Z,101041.29
2018-12-20T04:51:54.705Z,101040.92
2018-12-20T04:54:22.293Z,101051.59
2018-12-20T04:56:49.946Z,101044.87
2018-12-20T04:59:17.469Z,101037.25
2018-12-20T05:01:45.241Z,101033.25
2018-12-20T05:04:12.879Z,101038.62
2018-12-20T05:06:40.612Z,101041.29
2018-12-20T05:09:09.198Z,101039.97
2018-12-20T05:11:36.656Z,101030.55
2018-12-20T05:14:04.149Z,101029.20
2018-12-20T05:16:31.721Z,101027.86
2018-12-20T05:18:59.282Z,101041.75
2018-12-20T05:21:27.070Z,101037.77
2018-12-20T05:23:54.688Z,101044.89
2018-12-20T05:26:22.550Z,101043.16
2018-12-20T05:28:50.199Z,101036.89
2018-12-20T05:31:17.669Z,101043.61
2018-12-20T05:33:45.224Z,101031.50
2018-12-20T05:36:12.757Z,101036.42
2018-12-20T05:38:40.347Z,101031.50
2018-12-20T05:41:07.834Z,101031.44
2018-12-20T05:43:35.851Z,101031.44
2018-12-20T05:46:04.622Z,101036.37
2018-12-20T05:48:32.525Z,101033.67
2018-12-20T05:51:00.251Z,101030.07
2018-12-20T05:53:30.240Z,101033.61
2018-12-20T05:55:58.001Z,101032.23
2018-12-20T05:58:25.772Z,101038.53
2018-12-20T06:00:53.417Z,101035.84
2018-12-20T06:03:20.898Z,101041.66
2018-12-20T06:05:48.964Z,101039.88
2018-12-20T06:08:16.510Z,101034.95
2018-12-20T06:10:43.988Z,101029.58
2018-12-20T06:13:11.549Z,101026.42
2018-12-20T06:15:39.254Z,101029.58
2018-12-20T06:18:06.800Z,101031.81
2018-12-20T06:20:34.370Z,101031.81
2018-12-20T06:23:02.199Z,101038.53
2018-12-20T06:25:29.732Z,101040.34
2018-12-20T06:27:57.290Z,101040.83
2018-12-20T06:30:24.751Z,101039.48
2018-12-20T06:32:52.220Z,101042.18
2018-12-20T06:35:19.798Z,101036.80
2018-12-20T06:37:47.270Z,101038.17
2018-12-20T06:40:16.441Z,101039.95
2018-12-20T06:42:44.096Z,101035.02
2018-12-20T06:45:11.571Z,101038.59
2018-12-20T06:47:39.095Z,101039.48
2018-12-20T06:50:07.571Z,101044.44
2018-12-20T06:52:35.041Z,101038.45
2018-12-20T06:55:02.528Z,101038.81
2018-12-20T06:57:30.045Z,101034.93
2018-12-20T06:59:57.534Z,101036.63
2018-12-20T07:02:25.035Z,101039.42
2018-12-20T07:04:52.568Z,101010.37
2018-12-20T07:07:20.017Z,101029.69
2018-12-20T07:09:47.731Z,101035.47
2018-12-20T07:12:15.193Z,101040.39
2018-12-20T07:14:42.759Z,101042.62
2018-12-20T07:17:10.346Z,101046.14
2018-12-20T07:19:37.815Z,101045.69
2018-12-20T07:22:05.295Z,101046.59
2018-12-20T07:24:32.756Z,101043.02
2018-12-20T07:27:00.255Z,101043.02
2018-12-20T07:29:27.799Z,101043.51
2018-12-20T07:31:55.248Z,101040.84
2018-12-20T07:34:22.714Z,101044.88
2018-12-20T07:36:50.172Z,101046.69
2018-12-20T07:39:17.671Z,101039.19
2018-12-20T07:41:45.185Z,101044.14
2018-12-20T07:44:12.659Z,101046.83
2018-12-20T07:46:40.190Z,101044.14
2018-12-20T07:49:07.632Z,101047.34
2018-12-20T07:51:35.087Z,101044.66
2018-12-20T07:54:02.583Z,101037.50
2018-12-20T07:56:30.156Z,101044.73
2018-12-20T07:58:57.632Z,101035.80
2018-12-20T08:01:25.134Z,101031.77
2018-12-20T08:03:52.574Z,101032.72
2018-12-20T08:06:20.034Z,101032.80
2018-12-20T08:08:47.503Z,101030.12
2018-12-20T08:11:15.160Z,101036.86
2018-12-20T08:13:42.691Z,101036.02
2018-12-20T08:16:10.147Z,101039.61
2018-12-20T08:18:37.640Z,101045.50
2018-12-20T08:21:05.207Z,101048.13
2018-12-20T08:23:32.744Z,101048.59
2018-12-20T08:26:00.207Z,101052.62
2018-12-20T08:28:27.664Z,101061.06
2018-12-20T08:30:55.140Z,101064.16
2018-12-20T08:33:23.264Z,101065.39
2018-12-20T08:35:50.756Z,101059.98
2018-12-20T08:38:18.240Z,101065.80
2018-12-20T08:40:45.709Z,101067.09
2018-12-20T08:43:13.161Z,101058.56
2018-12-20T08:45:40.725Z,101063.48
2018-12-20T08:48:08.172Z,101059.02
2018-12-20T08:50:35.625Z,101064.85
2018-12-20T08:53:03.201Z,101067.09
2018-12-20T08:56:34.726Z,101067.54
2018-12-20T08:59:04.148Z,101068.95
2018-12-20T09:01:32.200Z,101065.83
2018-12-20T09:04:00.313Z,101068.52
2018-12-20T09:06:36.107Z,101066.73
2018-12-20T09:09:04.905Z,101068.14
2018-12-20T09:11:35.146Z,101076.20
2018-12-20T09:14:03.443Z,101082.50
2018-12-20T09:16:33.911Z,101084.36
2018-12-20T09:19:02.947Z,101083.07
2018-12-20T09:21:33.524Z,101076.42
2018-12-20T09:24:03.328Z,101082.63
2018-12-20T09:26:31.449Z,101080.86
2018-12-20T09:29:00.309Z,101078.60
2018-12-20T09:31:30.571Z,101075.97
2018-12-20T09:34:03.290Z,101078.23
2018-12-20T09:36:35.438Z,101088.09
2018-12-20T09:39:07.381Z,101082.78
2018-12-20T09:41:38.195Z,101081.00
2018-12-20T09:44:10.249Z,101077.42
2018-12-20T09:46:40.245Z,101084.14
2018-12-20T09:49:11.251Z,101083.25
2018-12-20T09:51:45.633Z,101077.02
2018-12-20T09:54:15.926Z,101083.74
2018-12-20T09:56:54.830Z,101077.87
2018-12-20T09:59:25.270Z,101055.86
2018-12-20T10:01:57.064Z,101073.81
2018-12-20T10:04:29.921Z,101066.58
2018-12-20T10:06:59.608Z,101066.12
2018-12-20T10:09:31.519Z,101063.46
2018-12-20T10:12:04.020Z,101065.23
2018-12-20T10:14:35.196Z,101066.64
2018-12-20T10:17:19.870Z,101055.83
2018-12-20T10:19:52.798Z,101055.31
2018-12-20T10:22:23.310Z,101057.01
2018-12-20T10:24:54.763Z,101058.72
2018-12-20T10:27:31.397Z,101053.72
2018-12-20T10:29:57.721Z,101051.47
2018-12-20T10:32:30.531Z,101044.22
2018-12-20T10:35:06.468Z,101041.59
2018-12-20T10:37:39.302Z,101047.83
2018-12-20T10:40:08.634Z,101038.02
2018-12-20T10:42:38.060Z,101037.50
2018-12-20T10:45:07.879Z,101027.26
2018-12-20T10:47:37.534Z,101030.41
2018-12-20T10:50:07.025Z,101026.37
2018-12-20T10:52:39.988Z,101022.34
2018-12-20T10:55:08.254Z,101023.70
2018-12-20T10:57:35.703Z,101024.66
2018-12-20T11:00:03.218Z,101012.55
2018-12-20T11:02:36.126Z,101007.69
2018-12-20T11:05:07.870Z,101008.60
2018-12-20T11:07:40.863Z,101015.33
2018-12-20T11:10:14.114Z,101004.14
2018-12-20T11:12:46.996Z,101006.89
2018-12-20T11:15:14.454Z,101006.43
2018-12-20T11:17:41.971Z,101008.25
2018-12-20T11:20:09.530Z,101004.22
2018-12-20T11:22:37.092Z,101003.73
2018-12-20T11:25:04.672Z,100996.16
2018-12-20T11:27:32.123Z,101000.19
2018-12-20T11:29:59.603Z,100997.05
2018-12-20T11:32:27.143Z,100992.61
2018-12-20T11:34:54.624Z,100997.02
2018-12-20T11:37:22.074Z,100993.47
2018-12-20T11:39:49.523Z,100991.27
2018-12-20T11:42:17.110Z,100988.09
2018-12-20T11:44:44.557Z,100988.09
2018-12-20T11:47:17.470Z,100988.06
2018-12-20T11:49:44.923Z,100986.66
2018-12-20T11:52:12.364Z,100984.41
2018-12-20T11:54:39.887Z,100977.16
2018-12-20T11:57:07.321Z,100975.30
2018-12-20T11:59:34.782Z,100971.70
2018-12-20T12:02:02.263Z,100969.89
2018-12-20T12:04:29.739Z,100967.20
2018-12-20T12:06:57.309Z,100964.97
2018-12-20T12:09:24.831Z,100962.37
2018-12-20T12:11:52.284Z,100968.12
2018-12-20T12:14:19.827Z,100971.70
2018-12-20T12:16:47.399Z,100964.55
2018-12-20T12:19:15.003Z,100964.14
2018-12-20T12:21:42.466Z,100963.26
2018-12-20T12:24:09.927Z,100958.33
2018-12-20T12:26:37.517Z,100962.80
2018-12-20T12:29:05.116Z,100954.76
2018-12-20T12:31:32.599Z,100954.76
2018-12-20T12:34:00.138Z,100952.56
2018-12-20T12:36:27.650Z,100948.92
2018-12-20T12:38:55.151Z,100952.44
2018-12-20T12:41:22.632Z,100957.27
2018-12-20T12:43:51.024Z,100915.70
2018-12-20T12:46:18.823Z,100950.55
2018-12-20T12:48:46.265Z,100953.52
2018-12-20T12:51:13.791Z,100955.15
2018-12-20T12:53:41.259Z,100951.97
2018-12-20T12:56:08.780Z,100949.27
2018-12-20T12:58:36.312Z,100951.05
2018-12-20T13:01:03.865Z,100947.93
2018-12-20T13:03:31.307Z,100955.09
2018-12-20T13:05:58.914Z,100950.59
2018-12-20T13:08:26.362Z,100951.48
2018-12-20T13:10:53.818Z,100950.98
2018-12-20T13:13:21.373Z,100954.56
2018-12-20T13:15:50.882Z,100954.56
2018-12-20T13:18:18.369Z,100958.57
2018-12-20T13:20:45.822Z,100951.84
2018-12-20T13:23:13.383Z,100954.53
2018-12-20T13:25:40.875Z,100956.77
2018-12-20T13:28:08.444Z,100951.38
2018-12-20T13:30:36.100Z,100954.47
2018-12-20T13:33:03.583Z,100948.20
2018-12-20T13:35:31.038Z,100952.21
2018-12-20T13:37:58.505Z,100941.38
2018-12-20T13:40:25.936Z,100949.06
2018-12-20T13:42:53.418Z,100947.66
2018-12-20T13:45:20.870Z,100949.91
2018-12-20T13:47:48.319Z,100955.72
2018-12-20T13:50:15.847Z,100953.03
2018-12-20T13:52:43.407Z,100949.45
2018-12-20T13:55:10.892Z,100954.38
2018-12-20T13:57:38.355Z,100950.86
2018-12-20T14:00:06.860Z,100948.63
2018-12-20T14:02:34.320Z,100950.44
2018-12-20T14:05:01.819Z,100950.89
2018-12-20T14:07:29.318Z,100949.52
2018-12-20T14:09:56.759Z,100953.09
2018-12-20T14:12:24.222Z,100958.48
2018-12-20T14:14:51.671Z,100955.78
2018-12-20T14:17:19.238Z,100956.64
2018-12-20T14:19:46.729Z,100950.41
2018-12-20T14:22:14.187Z,100960.13
2018-12-20T14:24:41.708Z,100964.98
2018-12-20T14:27:09.209Z,100972.58
2018-12-20T14:29:36.666Z,100963.18
2018-12-20T14:32:04.203Z,100965.05
2018-12-20T14:34:31.684Z,100960.58
2018-12-20T14:37:02.248Z,100964.98
2018-12-20T14:39:29.729Z,100969.91
2018-12-20T14:41:57.209Z,100966.76
2018-12-20T14:44:24.663Z,100966.23
2018-12-20T14:46:52.117Z,100967.12
2018-12-20T14:49:19.656Z,100965.23
2018-12-20T14:51:48.136Z,100963.95
2018-12-20T14:54:16.695Z,100968.84
2018-12-20T14:56:44.173Z,100965.23
2018-12-20T14:59:11.968Z,100968.38
2018-12-20T15:01:39.431Z,100971.07
2018-12-20T15:04:06.877Z,100971.95
2018-12-20T15:06:34.331Z,100970.24
2018-12-20T15:09:01.921Z,100968.93
2018-12-20T15:11:29.427Z,100970.19
2018-12-20T15:13:56.913Z,100970.19
2018-12-20T15:16:24.424Z,100976.05
2018-12-20T15:18:52.008Z,100976.52
2018-12-20T15:21:19.452Z,100971.16
2018-12-20T15:23:46.934Z,100974.28
2018-12-20T15:26:14.416Z,100983.70
2018-12-20T15:28:42.688Z,100981.92
2018-12-20T15:31:10.143Z,100983.27
2018-12-20T15:33:37.616Z,100981.53
2018-12-20T15:36:05.077Z,100987.31
2018-12-20T15:38:32.610Z,100981.02
2018-12-20T15:41:01.990Z,100979.23
2018-12-20T15:43:29.550Z,100970.80
2018-12-20T15:45:57.020Z,100975.27
2018-12-20T15:48:24.465Z,100976.81
2018-12-20T15:50:52.045Z,100980.30
2018-12-20T15:53:19.552Z,100972.16
2018-12-20T15:55:47.015Z,100971.70
2018-12-20T15:58:14.607Z,100969.44
2018-12-20T16:00:42.104Z,100970.27
2018-12-20T16:03:09.595Z,100970.27
2018-12-20T16:05:37.091Z,100968.52
2018-12-20T16:08:06.633Z,100967.17
2018-12-20T16:10:34.140Z,100964.84
2018-12-20T16:13:01.637Z,100956.41
2018-12-20T16:15:29.197Z,100971.94
2018-12-20T16:17:56.679Z,100975.02
2018-12-20T16:20:24.146Z,100976.28
2018-12-20T16:22:51.596Z,100969.97
2018-12-20T16:25:19.061Z,100977.53
2018-12-20T16:27:46.544Z,100976.64
2018-12-20T16:30:14.008Z,100977.06
2018-12-20T16:32:41.458Z,100970.30
2018-12-20T16:35:08.962Z,100970.70
2018-12-20T16:37:36.408Z,100975.55
2018-12-20T16:40:04.601Z,100971.95
2018-12-20T16:42:32.179Z,100970.60
2018-12-20T16:44:59.647Z,100971.48
2018-12-20T16:47:27.112Z,100977.30
2018-12-20T16:49:54.655Z,100977.23
2018-12-20T16:52:22.130Z,100977.66
2018-12-20T16:54:49.582Z,100974.08
2018-12-20T16:57:17.048Z,100974.11
2018-12-20T16:59:44.605Z,100975.42
2018-12-20T17:02:12.100Z,100969.09
2018-12-20T17:04:39.580Z,100976.31
2018-12-20T17:07:07.176Z,100965.12
2018-12-20T17:09:34.805Z,100964.30
2018-12-20T17:12:02.291Z,100965.73
2018-12-20T17:14:29.841Z,100963.05
2018-12-20T17:16:57.373Z,100967.55
2018-12-20T17:19:24.829Z,100965.38
2018-12-20T17:21:52.268Z,100965.87
2018-12-20T17:24:19.730Z,100970.34
2018-12-20T17:26:47.270Z,100960.09
2018-12-20T17:29:14.761Z,100963.24
2018-12-20T17:31:42.291Z,100965.50
2018-12-20T17:34:09.797Z,100964.59
2018-12-20T17:36:37.264Z,100968.20
2018-12-20T17:39:06.190Z,100960.13
2018-12-20T17:41:33.675Z,100955.20
2018-12-20T17:44:01.139Z,100961.47
2018-12-20T17:46:28.724Z,100955.69
2018-12-20T17:48:56.312Z,100960.55
2018-12-20T17:51:23.817Z,100968.20
2018-12-20T17:53:51.280Z,100962.42
2018-12-20T17:56:18.804Z,100958.84
2018-12-20T17:58:46.421Z,100958.31
2018-12-20T18:01:13.896Z,100957.43
2018-12-20T18:03:41.413Z,100953.45
2018-12-20T18:06:08.858Z,100958.78
2018-12-20T18:08:36.325Z,100958.22
2018-12-20T18:11:03.785Z,100954.18
2018-12-20T18:13:31.229Z,100956.05
2018-12-20T18:15:58.732Z,100952.02
2018-12-20T18:18:26.220Z,100949.78
2018-12-20T18:20:54.083Z,100954.70
2018-12-20T18:23:21.565Z,100953.36
2018-12-20T18:25:49.016Z,100954.73
2018-12-20T18:28:16.449Z,100952.05
2018-12-20T18:30:44.224Z,100954.28
2018-12-20T18:33:11.926Z,100958.28
2018-12-20T18:35:39.465Z,100958.28
2018-12-20T18:38:06.933Z,100955.59
2018-12-20T18:40:34.402Z,100956.52
2018-12-20T18:43:01.928Z,100954.73
2018-12-20T18:45:29.413Z,100956.09
2018-12-20T18:47:56.889Z,100955.20
2018-12-20T18:50:24.333Z,100952.50
2018-12-20T18:52:51.834Z,100940.62
2018-12-20T18:55:19.319Z,100954.38
2018-12-20T18:57:46.772Z,100950.80
2018-12-20T19:00:14.260Z,100948.59
2018-12-20T19:02:41.753Z,100942.72
2018-12-20T19:05:09.340Z,100944.06
2018-12-20T19:07:36.899Z,100950.70
2018-12-20T19:10:04.875Z,100952.02
2018-12-20T19:12:42.715Z,100945.31
2018-12-20T19:15:10.172Z,100943.97
2018-12-20T19:17:37.657Z,100938.58
2018-12-20T19:20:06.108Z,100934.55
2018-12-20T19:22:33.811Z,100927.33
2018-12-20T19:25:01.364Z,100931.39
2018-12-20T19:27:28.947Z,100931.39
2018-12-20T19:29:56.421Z,100933.66
2018-12-20T19:32:23.975Z,100936.84
2018-12-20T19:34:51.525Z,100930.77
2018-12-20T19:37:19.086Z,100927.31
2018-12-20T19:39:50.122Z,100927.09
2018-12-20T19:42:17.946Z,100925.35
2018-12-20T19:44:45.540Z,100925.45
2018-12-20T19:47:15.016Z,100925.02
2018-12-20T19:49:42.647Z,100925.58
2018-12-20T19:52:10.168Z,100920.69
2018-12-20T19:54:38.790Z,100925.55
2018-12-20T19:57:06.266Z,100926.08
2018-12-20T19:59:38.638Z,100922.03
2018-12-20T20:02:05.312Z,100922.86
2018-12-20T20:04:32.909Z,100918.85
2018-12-20T20:07:00.368Z,100922.89
2018-12-20T20:09:27.844Z,100915.30
2018-12-20T20:11:57.411Z,100917.57
2018-12-20T20:14:24.970Z,100912.25
2018-12-20T20:16:52.463Z,100905.52
2018-12-20T20:19:20.026Z,100911.37
2018-12-20T20:21:47.567Z,100909.06
2018-12-20T20:26:59.630Z,100901.31
2018-12-20T20:29:27.365Z,100909.83
2018-12-20T20:31:55.011Z,100905.29
2018-12-20T20:34:22.469Z,100901.48
2018-12-20T20:36:50.118Z,100898.17
2018-12-20T20:39:17.674Z,100889.48
2018-12-20T20:41:45.273Z,100891.54
2018-12-20T20:44:12.755Z,100890.27
2018-12-20T20:46:40.232Z,100890.31
2018-12-20T20:49:07.738Z,100894.27
2018-12-20T20:51:35.214Z,100891.84
2018-12-20T20:54:02.735Z,100892.52
2018-12-20T20:56:30.247Z,100894.84
2018-12-20T20:58:57.732Z,100897.02
2018-12-20T21:01:25.210Z,100901.58
2018-12-20T21:03:52.705Z,100899.91
2018-12-20T21:06:20.170Z,100892.22
2018-12-20T21:08:47.611Z,100893.04
2018-12-20T21:11:15.241Z,100897.18
2018-12-20T21:13:42.901Z,100893.56
2018-12-20T21:16:10.339Z,100889.10
2018-12-20T21:18:37.833Z,100888.64
2018-12-20T21:21:05.283Z,100893.96
2018-12-20T21:23:32.738Z,100889.53
2018-12-20T21:26:00.235Z,100880.60
2018-12-20T21:28:27.884Z,100880.30
2018-12-20T21:30:55.327Z,100881.30
2018-12-20T21:33:22.810Z,100878.60
2018-12-20T21:35:50.271Z,100880.80
2018-12-20T21:38:17.918Z,100878.53
2018-12-20T21:40:45.541Z,100883.13
2018-12-20T21:43:13.008Z,100875.52
2018-12-20T21:45:40.440Z,100881.75
2018-12-20T21:48:07.889Z,100870.09
2018-12-20T21:50:38.887Z,100871.48
2018-12-20T21:53:04.905Z,100875.13
2018-12-20T21:55:32.417Z,100873.71
2018-12-20T21:57:59.996Z,100872.69
2018-12-20T22:00:27.480Z,100872.80
2018-12-20T22:02:54.948Z,100877.03
2018-12-20T22:05:22.492Z,100873.19
2018-12-20T22:07:49.980Z,100875.09
2018-12-20T22:10:17.465Z,100877.39
2018-12-20T22:12:45.006Z,100881.00
2018-12-20T22:15:12.498Z,100880.54
2018-12-20T22:17:40.761Z,100877.48
2018-12-20T22:20:08.205Z,100879.22
2018-12-20T22:22:35.719Z,100876.08
2018-12-20T22:25:03.283Z,100876.53
2018-12-20T22:27:30.831Z,100878.34
2018-12-20T22:29:58.267Z,100874.73
2018-12-20T22:32:25.733Z,100882.80
2018-12-20T22:34:53.360Z,100873.84
2018-12-20T22:37:21.005Z,100868.92
2018-12-20T22:39:49.093Z,100869.88
2018-12-20T22:42:16.675Z,100871.15
2018-12-20T22:44:44.268Z,100875.19
2018-12-20T22:47:11.835Z,100869.31
2018-12-20T22:49:39.383Z,100861.64
2018-12-20T22:52:06.858Z,100860.29
2018-12-20T22:54:34.336Z,100862.06
2018-12-20T22:57:01.820Z,100854.45
2018-12-20T22:59:29.348Z,100853.56
2018-12-20T23:01:57.000Z,100855.34
2018-12-20T23:04:24.505Z,100852.22
2018-12-20T23:06:52.020Z,100851.40
2018-12-20T23:09:19.516Z,100850.05
2018-12-20T23:11:47.009Z,100848.70
2018-12-20T23:14:14.503Z,100841.55
2018-12-20T23:16:41.964Z,100841.16
2018-12-20T23:19:09.447Z,100842.97
2018-12-20T23:21:37.091Z,100835.35
2018-12-20T23:24:04.689Z,100840.73
2018-12-20T23:26:32.136Z,100837.62
2018-12-20T23:28:59.630Z,100831.31
2018-12-20T23:31:27.075Z,100830.40
2018-12-20T23:33:54.544Z,100827.70
2018-12-20T23:36:22.037Z,100821.83
2018-12-20T23:38:49.542Z,100827.19
2018-12-20T23:41:17.375Z,100825.41
2018-12-20T23:43:44.913Z,100826.76
2018-12-20T23:46:12.409Z,100821.38
2018-12-20T23:48:39.902Z,100816.95
2018-12-20T23:51:13.434Z,100807.03
2018-12-20T23:53:36.936Z,100795.69
2018-12-20T23:56:04.425Z,100810.16
2018-12-20T23:58:32.015Z,100805.23
